Owls Head, ME

12:18 AM EST on December 20, 2014 (GMT -0500)
Upper Park Street | Change Station
CLOSE
Current Station
Personal Weather Station
Location: Rockland, ME
Elevation: 79 ft
Nearby Weather Stations

Elev 79 ft 44.10 °N, 69.13 °W | Updated 7 seconds ago

Clear
Clear
28.8 °F
Feels Like 20 °F
N
9.8
Wind Variable Wind from NNE
Gusts 18.0 mph

Today
High -- | Low -- °F
--% Chance of Precip.
Yesterday
High -- | Low -- °F
Precip. -- in
7:07 AM 4:00 PM
Waning Crescent, 4% visible
Pressure 30.13 in
Visibility 10.0 miles
Clouds Clear
Windchill 20 °F
Dew Point 23 °F
Humidity 73%
Rainfall 0.00 in
Snow Depth Not available.
UV 0 out of 12
Pollen .10 out of 12
Air Quality Not available.
Flu Activity Not available.
METAR KRKD 200515Z AUTO 01010G19KT 10SM CLR M02/M08 A3013 RMK AO1

More Conditions Fewer Conditions

Pressure 30.13 in
Visibility 10.0 miles
Clouds Clear
Windchill 20 °F
Dew Point 23 °F
Humidity 73%
Rainfall 0.00 in
Snow Depth Not available.
UV 0 out of 12
Pollen .10 out of 12
Air Quality Not available.
Flu Activity Not available.
METAR KRKD 200515Z AUTO 01010G19KT 10SM CLR M02/M08 A3013 RMK AO1

More Conditions Fewer Conditions

10-Day Weather Forecast

Almanac

Astronomy

Dec. 20, 2014 Rise Set
Actual Time
Civil Twilight
Nautical Twilight
Astronomical Twilight
Moon
Length of Visible Light
Length of Day
Tomorrow will be .
, % of the Moon is Illuminated

Today's Extremes

State Highs State Lows

Community

WunderPhotos

Upload Photos

1,779,137 photos uploaded!

WunderBlogs® & News

Nearby

Air Quality

  Air Quality AQ Index Pollutant
Not available.

Snow Depth

Station Depth Elevation

Earthquake Activity

City Distance Mag. Time & Date
Minimum magnitude displayed is 2.5.

Coastal Water Temperatures

Place Temperature

Nearby Weather Stations